createdAt,value
2023-04-06T00:00:20.882Z,45.44
2023-04-06T00:01:20.904Z,43.67
2023-04-06T00:02:20.953Z,41.57
2023-04-06T00:03:20.954Z,43.34
2023-04-06T00:04:20.845Z,41.41
2023-04-06T00:05:20.860Z,42.38
2023-04-06T00:06:20.864Z,44.96
2023-04-06T00:07:20.832Z,40.61
2023-04-06T00:08:20.824Z,45.92
2023-04-06T00:09:20.809Z,44.31
2023-04-06T00:10:20.804Z,41.73
2023-04-06T00:11:20.829Z,43.51
2023-04-06T00:12:20.802Z,43.99
2023-04-06T00:13:20.786Z,43.51
2023-04-06T00:14:20.777Z,43.99
2023-04-06T00:15:20.776Z,41.89
2023-04-06T00:16:21.577Z,42.22
2023-04-06T00:17:20.755Z,46.41
2023-04-06T00:18:20.789Z,43.34
2023-04-06T00:19:20.743Z,43.18
2023-04-06T00:20:20.730Z,45.60
2023-04-06T00:21:20.748Z,46.25
2023-04-06T00:22:20.718Z,46.73
2023-04-06T00:23:20.730Z,44.63
2023-04-06T00:24:20.711Z,45.76
2023-04-06T00:25:20.699Z,42.70
2023-04-06T00:26:20.728Z,43.99
2023-04-06T00:27:20.685Z,45.28
2023-04-06T00:28:20.665Z,45.44
2023-04-06T00:29:21.683Z,45.44
2023-04-06T00:30:20.659Z,49.47
2023-04-06T00:31:20.660Z,44.63
2023-04-06T00:32:20.727Z,41.41
2023-04-06T00:33:20.644Z,45.76
2023-04-06T00:34:20.643Z,50.11
2023-04-06T00:35:20.630Z,45.12
2023-04-06T00:36:21.706Z,43.02
2023-04-06T00:37:20.641Z,42.22
2023-04-06T00:38:20.603Z,42.86
2023-04-06T00:39:21.254Z,47.86
2023-04-06T00:40:21.587Z,46.08
2023-04-06T00:41:20.584Z,45.92
2023-04-06T00:42:20.596Z,48.66
2023-04-06T00:43:20.567Z,50.92
2023-04-06T00:44:20.589Z,47.37
2023-04-06T00:45:20.557Z,45.92
2023-04-06T00:46:20.573Z,43.02
2023-04-06T00:47:20.566Z,43.99
2023-04-06T00:48:20.543Z,46.25
2023-04-06T00:49:20.532Z,44.15
2023-04-06T00:50:20.518Z,46.25
2023-04-06T00:51:20.505Z,47.37
2023-04-06T00:52:20.525Z,44.47
2023-04-06T00:53:20.495Z,44.31
2023-04-06T00:54:20.484Z,43.99
2023-04-06T00:55:20.488Z,43.67
2023-04-06T00:56:20.480Z,45.12
2023-04-06T00:57:20.506Z,44.31
2023-04-06T00:58:20.452Z,45.28
2023-04-06T00:59:20.561Z,44.47
2023-04-06T01:00:20.449Z,42.38
2023-04-06T01:01:20.498Z,43.34
2023-04-06T01:02:20.478Z,42.38
2023-04-06T01:03:20.425Z,44.47
2023-04-06T01:04:20.421Z,43.51
2023-04-06T01:05:20.436Z,44.47
2023-04-06T01:06:20.410Z,42.22
2023-04-06T01:07:20.416Z,41.41
2023-04-06T01:08:20.381Z,40.93
2023-04-06T01:09:20.380Z,40.28
2023-04-06T01:10:20.371Z,40.77
2023-04-06T01:11:20.421Z,42.38
2023-04-06T01:12:20.389Z,46.08
2023-04-06T01:13:20.357Z,44.47
2023-04-06T01:14:20.339Z,43.99
2023-04-06T01:15:20.331Z,46.25
2023-04-06T01:16:20.353Z,40.44
2023-04-06T01:17:20.354Z,43.18
2023-04-06T01:18:20.316Z,46.08
2023-04-06T01:19:20.312Z,45.28
2023-04-06T01:20:20.317Z,44.63
2023-04-06T01:21:20.292Z,42.06
2023-04-06T01:22:20.310Z,42.70
2023-04-06T01:23:20.275Z,42.70
2023-04-06T01:24:20.274Z,42.06
2023-04-06T01:25:20.267Z,40.44
2023-04-06T01:26:20.247Z,44.79
2023-04-06T01:27:20.270Z,49.95
2023-04-06T01:28:20.237Z,46.25
2023-04-06T01:29:20.234Z,43.51
2023-04-06T01:30:20.217Z,44.96
2023-04-06T01:31:20.218Z,49.31
2023-04-06T01:32:21.257Z,47.05
2023-04-06T01:33:20.204Z,44.47
2023-04-06T01:34:20.199Z,47.86
2023-04-06T01:35:20.202Z,48.82
2023-04-06T01:36:20.183Z,48.50
2023-04-06T01:37:20.196Z,45.12
2023-04-06T01:38:20.166Z,43.67
2023-04-06T01:39:20.158Z,46.08
2023-04-06T01:40:20.161Z,49.15
2023-04-06T01:41:20.139Z,50.76
2023-04-06T01:42:20.161Z,51.08
2023-04-06T01:43:20.130Z,50.92
2023-04-06T01:44:20.136Z,52.37
2023-04-06T01:45:20.113Z,49.63
2023-04-06T01:46:20.141Z,49.31
2023-04-06T01:47:20.145Z,47.86
2023-04-06T01:48:21.095Z,49.63
2023-04-06T01:49:20.086Z,48.18
2023-04-06T01:50:20.076Z,46.08
2023-04-06T01:51:20.068Z,44.47
2023-04-06T01:52:20.087Z,45.28
2023-04-06T01:53:20.061Z,49.15
2023-04-06T01:54:20.053Z,44.47
2023-04-06T01:55:20.040Z,44.63
2023-04-06T01:56:20.044Z,41.73
2023-04-06T01:57:20.063Z,41.57
2023-04-06T01:58:20.024Z,41.41
2023-04-06T01:59:20.048Z,41.57
2023-04-06T02:00:20.004Z,47.05
2023-04-06T02:01:20.151Z,48.98
2023-04-06T02:02:20.042Z,42.86
2023-04-06T02:03:20.033Z,42.54
2023-04-06T02:04:19.977Z,48.82
2023-04-06T02:05:19.971Z,50.76
2023-04-06T02:06:19.970Z,42.54
2023-04-06T02:07:19.987Z,46.57
2023-04-06T02:08:19.958Z,43.99
2023-04-06T02:09:19.940Z,49.63
2023-04-06T02:10:19.939Z,45.92
2023-04-06T02:11:19.924Z,43.51
2023-04-06T02:12:19.946Z,43.02
2023-04-06T02:13:19.909Z,41.41
2023-04-06T02:14:19.902Z,43.51
2023-04-06T02:15:19.900Z,47.53
2023-04-06T02:16:19.935Z,44.47
2023-04-06T02:17:19.904Z,43.67
2023-04-06T02:18:19.876Z,44.96
2023-04-06T02:19:19.898Z,44.47
2023-04-06T02:20:19.855Z,43.51
2023-04-06T02:21:19.855Z,46.73
2023-04-06T02:22:19.868Z,46.08
2023-04-06T02:23:19.837Z,53.98
2023-04-06T02:24:19.887Z,48.50
2023-04-06T02:25:19.819Z,48.66
2023-04-06T02:26:19.826Z,51.24
2023-04-06T02:27:19.843Z,56.24
2023-04-06T02:28:19.802Z,49.47
2023-04-06T02:29:19.793Z,49.79
2023-04-06T02:30:19.778Z,49.47
2023-04-06T02:31:19.794Z,50.43
2023-04-06T02:32:19.795Z,48.82
2023-04-06T02:33:19.758Z,47.53
2023-04-06T02:34:19.770Z,48.98
2023-04-06T02:35:19.804Z,45.60
2023-04-06T02:36:19.752Z,43.34
2023-04-06T02:37:19.757Z,45.44
2023-04-06T02:38:19.722Z,43.51
2023-04-06T02:39:19.714Z,40.93
2023-04-06T02:40:19.715Z,41.73
2023-04-06T02:41:19.709Z,42.06
2023-04-06T02:42:19.716Z,43.51
2023-04-06T02:43:19.696Z,44.96
2023-04-06T02:44:19.689Z,45.76
2023-04-06T02:45:19.683Z,46.89
2023-04-06T02:46:19.709Z,47.70
2023-04-06T02:47:19.681Z,43.34
2023-04-06T02:48:19.652Z,47.70
2023-04-06T02:49:19.640Z,46.89
2023-04-06T02:50:19.636Z,43.18
2023-04-06T02:51:19.626Z,44.15
2023-04-06T02:52:19.645Z,46.25
2023-04-06T02:53:19.620Z,47.53
2023-04-06T02:54:19.605Z,48.34
2023-04-06T02:55:22.025Z,44.79
2023-04-06T02:56:19.594Z,46.25
2023-04-06T02:57:19.616Z,46.41
2023-04-06T02:58:19.578Z,46.41
2023-04-06T02:59:19.648Z,43.99
2023-04-06T03:00:19.561Z,44.96
2023-04-06T03:01:19.569Z,50.11
2023-04-06T03:02:19.613Z,47.05
2023-04-06T03:03:19.675Z,45.76
2023-04-06T03:04:20.535Z,48.50
2023-04-06T03:05:19.532Z,51.40
2023-04-06T03:06:19.527Z,47.70
2023-04-06T03:07:19.542Z,46.25
2023-04-06T03:08:19.516Z,46.57
2023-04-06T03:09:19.494Z,43.51
2023-04-06T03:10:19.503Z,46.08
2023-04-06T03:11:19.484Z,44.79
2023-04-06T03:12:19.492Z,46.08
2023-04-06T03:13:20.492Z,47.37
2023-04-06T03:14:19.463Z,45.12
2023-04-06T03:15:19.465Z,47.53
2023-04-06T03:16:19.651Z,47.70
2023-04-06T03:17:19.461Z,49.15
2023-04-06T03:18:19.438Z,49.47
2023-04-06T03:19:19.422Z,48.18
2023-04-06T03:20:19.419Z,48.02
2023-04-06T03:21:19.410Z,48.82
2023-04-06T03:22:19.403Z,48.82
2023-04-06T03:23:19.420Z,48.50
2023-04-06T03:24:19.396Z,52.21
2023-04-06T03:25:19.395Z,58.97
2023-04-06T03:26:19.373Z,56.40
2023-04-06T03:27:19.361Z,55.91
2023-04-06T03:28:19.380Z,53.33
2023-04-06T03:29:19.345Z,55.43
2023-04-06T03:30:19.346Z,57.52
2023-04-06T03:31:19.354Z,60.10
2023-04-06T03:32:19.330Z,54.30
2023-04-06T03:33:19.345Z,55.11
2023-04-06T03:34:19.309Z,57.69
2023-04-06T03:35:19.356Z,54.62
2023-04-06T03:36:19.298Z,56.56
2023-04-06T03:37:19.290Z,58.49
2023-04-06T03:38:19.320Z,58.81
2023-04-06T03:39:19.276Z,58.81
2023-04-06T03:40:19.270Z,53.33
2023-04-06T03:41:19.261Z,53.50
2023-04-06T03:42:19.253Z,57.36
2023-04-06T03:43:19.263Z,56.40
2023-04-06T03:44:19.234Z,57.36
2023-04-06T03:45:19.227Z,56.56
2023-04-06T03:46:19.295Z,52.69
2023-04-06T03:47:19.216Z,54.79
2023-04-06T03:48:19.235Z,54.79
2023-04-06T03:49:19.196Z,55.43
2023-04-06T03:50:19.212Z,55.43
2023-04-06T03:51:19.185Z,55.43
2023-04-06T03:52:19.173Z,58.17
2023-04-06T03:53:19.192Z,54.46
2023-04-06T03:54:19.161Z,54.79
2023-04-06T03:55:19.157Z,54.79
2023-04-06T03:56:19.151Z,58.01
2023-04-06T03:57:19.155Z,55.91
2023-04-06T03:58:19.158Z,53.01
2023-04-06T03:59:19.140Z,54.62
2023-04-06T04:00:19.121Z,52.37
2023-04-06T04:01:19.108Z,54.14
2023-04-06T04:02:19.185Z,57.36
2023-04-06T04:03:19.250Z,60.75
2023-04-06T04:04:19.090Z,56.88
2023-04-06T04:05:19.175Z,51.56
2023-04-06T04:06:19.089Z,53.01
2023-04-06T04:07:19.067Z,52.05
2023-04-06T04:08:19.085Z,50.60
2023-04-06T04:09:19.058Z,54.14
2023-04-06T04:10:19.047Z,58.81
2023-04-06T04:11:19.031Z,57.36
2023-04-06T04:12:19.025Z,60.91
2023-04-06T04:13:19.049Z,52.37
2023-04-06T04:14:19.027Z,58.65
2023-04-06T04:15:19.005Z,58.49
2023-04-06T04:16:19.037Z,61.07
2023-04-06T04:17:18.998Z,59.94
2023-04-06T04:18:19.017Z,59.14
2023-04-06T04:19:19.005Z,59.46
2023-04-06T04:20:18.971Z,53.82
2023-04-06T04:21:18.956Z,55.91
2023-04-06T04:22:19.967Z,52.85
2023-04-06T04:23:18.978Z,54.95
2023-04-06T04:24:18.969Z,55.91
2023-04-06T04:25:18.938Z,54.14
2023-04-06T04:26:18.927Z,58.01
2023-04-06T04:27:18.920Z,57.20
2023-04-06T04:28:18.946Z,55.59
2023-04-06T04:29:18.905Z,56.88
2023-04-06T04:30:18.916Z,57.20
2023-04-06T04:31:18.900Z,60.59
2023-04-06T04:32:18.904Z,59.14
2023-04-06T04:33:18.911Z,58.65
2023-04-06T04:34:18.881Z,58.01
2023-04-06T04:35:18.938Z,56.56
2023-04-06T04:36:18.861Z,60.59
2023-04-06T04:37:18.865Z,55.91
2023-04-06T04:38:18.873Z,57.04
2023-04-06T04:39:18.861Z,53.33
2023-04-06T04:40:18.839Z,60.42
2023-04-06T04:41:18.830Z,53.66
2023-04-06T04:44:37.399Z,56.07
2023-04-06T04:45:37.453Z,56.72
2023-04-06T04:46:37.389Z,54.30
2023-04-06T04:47:37.422Z,55.27
2023-04-06T04:48:37.411Z,58.33
2023-04-06T04:49:37.370Z,60.10
2023-04-06T04:50:37.363Z,59.78
2023-04-06T04:51:37.355Z,56.56
2023-04-06T04:52:37.346Z,59.78
2023-04-06T04:53:37.365Z,57.69
2023-04-06T04:54:37.340Z,60.10
2023-04-06T04:55:37.325Z,57.20
2023-04-06T04:56:37.326Z,58.65
2023-04-06T04:57:37.311Z,59.30
2023-04-06T04:58:37.336Z,61.23
2023-04-06T04:59:37.375Z,54.46
2023-04-06T05:00:37.289Z,56.24
2023-04-06T05:01:51.300Z,60.59
2023-04-06T05:02:38.324Z,59.30
2023-04-06T05:03:37.410Z,60.59
2023-04-06T05:04:37.269Z,61.39
2023-04-06T05:05:37.259Z,59.78
2023-04-06T05:06:37.245Z,57.52
2023-04-06T05:07:37.230Z,59.94
2023-04-06T05:08:37.269Z,58.01
2023-04-06T05:09:37.227Z,61.07
2023-04-06T05:10:37.213Z,56.40
2023-04-06T05:11:37.201Z,56.40
2023-04-06T05:12:37.200Z,59.62
2023-04-06T05:13:37.216Z,58.01
2023-04-06T05:14:37.182Z,59.62
2023-04-06T05:15:37.189Z,60.59
2023-04-06T05:16:37.175Z,57.85
2023-04-06T05:17:37.176Z,61.07
2023-04-06T05:18:37.182Z,58.33
2023-04-06T05:19:37.142Z,61.23
2023-04-06T05:20:37.153Z,61.07
2023-04-06T05:21:37.123Z,58.17
2023-04-06T05:22:37.121Z,58.49
2023-04-06T05:23:37.135Z,58.17
2023-04-06T05:24:37.108Z,51.24
2023-04-06T05:25:37.097Z,61.23
2023-04-06T05:26:37.096Z,59.14
2023-04-06T05:27:37.079Z,54.30
2023-04-06T05:28:37.099Z,57.52
2023-04-06T05:29:37.069Z,63.16
2023-04-06T05:30:37.066Z,54.46
2023-04-06T05:31:37.111Z,53.50
2023-04-06T05:32:37.074Z,59.94
2023-04-06T05:33:37.054Z,59.62
2023-04-06T05:34:37.025Z,55.11
2023-04-06T05:35:37.021Z,57.04
2023-04-06T05:36:37.013Z,59.94
2023-04-06T05:37:36.994Z,57.04
2023-04-06T05:38:37.018Z,61.87
2023-04-06T05:39:36.980Z,55.91
2023-04-06T05:40:36.969Z,55.91
2023-04-06T05:41:36.960Z,56.40
2023-04-06T05:42:36.953Z,55.27
2023-04-06T05:43:36.968Z,58.17
2023-04-06T05:44:36.936Z,57.20
2023-04-06T05:45:36.924Z,57.52
2023-04-06T05:46:36.966Z,54.46
2023-04-06T05:47:36.930Z,56.88
2023-04-06T05:48:36.933Z,56.88
2023-04-06T05:49:38.028Z,54.95
2023-04-06T05:50:38.028Z,59.78
2023-04-06T05:51:38.016Z,57.69
2023-04-06T05:52:38.010Z,55.91
2023-04-06T05:53:38.033Z,57.04
2023-04-06T05:54:37.998Z,54.30
2023-04-06T05:55:37.984Z,56.24
2023-04-06T05:56:37.979Z,59.78
2023-04-06T05:57:37.965Z,53.01
2023-04-06T05:58:37.983Z,57.20
2023-04-06T05:59:38.075Z,54.46
2023-04-06T06:00:37.952Z,57.85
2023-04-06T06:01:37.955Z,51.88
2023-04-06T06:02:38.067Z,53.50
2023-04-06T06:03:37.950Z,52.69
2023-04-06T06:04:37.929Z,53.66
2023-04-06T06:05:37.902Z,55.59
2023-04-06T06:06:37.913Z,51.24
2023-04-06T06:07:37.892Z,55.91
2023-04-06T06:08:37.925Z,50.76
2023-04-06T06:09:37.871Z,52.53
2023-04-06T06:10:37.860Z,49.79
2023-04-06T06:11:37.853Z,49.63
2023-04-06T06:12:37.848Z,51.08
2023-04-06T06:13:37.869Z,48.98
2023-04-06T06:14:37.827Z,53.17
2023-04-06T06:15:38.826Z,52.85
2023-04-06T06:16:37.857Z,56.24
2023-04-06T06:17:39.086Z,49.47
2023-04-06T06:18:38.836Z,51.08
2023-04-06T06:19:37.794Z,54.62
2023-04-06T06:20:37.790Z,55.27
2023-04-06T06:21:37.777Z,52.21
2023-04-06T06:22:38.072Z,54.79
2023-04-06T06:23:37.786Z,52.21
2023-04-06T06:24:38.757Z,56.72
2023-04-06T06:25:37.749Z,51.08
2023-04-06T06:26:37.739Z,49.95
2023-04-06T06:27:37.734Z,51.56
2023-04-06T06:28:37.750Z,50.27
2023-04-06T06:29:37.720Z,47.21
2023-04-06T06:30:37.730Z,51.08
2023-04-06T06:31:37.731Z,50.60
2023-04-06T06:32:37.756Z,53.82
2023-04-06T06:33:37.724Z,52.85
2023-04-06T06:34:37.682Z,48.66
2023-04-06T06:35:37.737Z,50.27
2023-04-06T06:36:37.677Z,54.62
2023-04-06T06:37:37.681Z,50.92
2023-04-06T06:38:37.693Z,47.37
2023-04-06T06:39:37.642Z,57.52
2023-04-06T06:40:37.645Z,56.72
2023-04-06T06:41:37.652Z,52.37
2023-04-06T06:42:37.628Z,49.15
2023-04-06T06:43:37.659Z,45.76
2023-04-06T06:44:37.620Z,53.01
2023-04-06T06:45:37.678Z,55.91
2023-04-06T06:46:37.611Z,56.07
2023-04-06T06:47:37.605Z,50.43
2023-04-06T06:48:37.632Z,53.66
2023-04-06T06:49:37.569Z,50.27
2023-04-06T06:50:37.561Z,50.76
2023-04-06T06:51:37.556Z,54.14
2023-04-06T06:52:37.566Z,50.27
2023-04-06T06:53:37.573Z,49.79
2023-04-06T06:54:37.540Z,49.63
2023-04-06T06:55:37.532Z,50.11
2023-04-06T06:56:37.522Z,51.88
2023-04-06T06:57:37.520Z,54.46
2023-04-06T06:58:37.534Z,55.59
2023-04-06T06:59:37.615Z,52.69
2023-04-06T07:00:37.511Z,45.92
2023-04-06T07:01:37.509Z,48.18
2023-04-06T07:02:37.500Z,52.69
2023-04-06T07:03:37.487Z,53.01
2023-04-06T07:04:37.562Z,51.40
2023-04-06T07:05:38.856Z,52.37
2023-04-06T07:06:37.466Z,54.46
2023-04-06T07:07:37.438Z,55.75
2023-04-06T07:08:37.456Z,49.79
2023-04-06T07:09:37.423Z,51.40
2023-04-06T07:10:37.418Z,53.17
2023-04-06T07:11:37.430Z,55.27
2023-04-06T07:12:37.398Z,51.24
2023-04-06T07:13:37.418Z,46.73
2023-04-06T07:14:37.384Z,57.85
2023-04-06T07:15:37.407Z,51.08
2023-04-06T07:16:37.415Z,57.04
2023-04-06T07:17:37.405Z,53.17
2023-04-06T07:18:37.384Z,49.31
2023-04-06T07:19:37.347Z,56.07
2023-04-06T07:20:37.344Z,46.89
2023-04-06T07:21:37.324Z,51.56
2023-04-06T07:22:37.327Z,57.52
2023-04-06T07:23:37.357Z,51.72
2023-04-06T07:24:37.307Z,57.52
2023-04-06T07:25:37.301Z,48.34
2023-04-06T07:26:37.300Z,55.43
2023-04-06T07:27:37.289Z,58.01
2023-04-06T07:28:37.336Z,51.72
2023-04-06T07:29:37.268Z,52.69
2023-04-06T07:30:37.293Z,53.01
2023-04-06T07:31:37.308Z,60.75
2023-04-06T07:32:37.311Z,50.92
2023-04-06T07:33:37.248Z,46.57
2023-04-06T07:34:37.293Z,55.11
2023-04-06T07:35:37.265Z,57.85
2023-04-06T07:36:37.251Z,50.11
2023-04-06T07:37:37.229Z,53.66
2023-04-06T07:38:37.212Z,55.59
2023-04-06T07:39:37.232Z,50.11
2023-04-06T07:40:37.198Z,58.97
2023-04-06T07:41:37.202Z,51.24
2023-04-06T07:42:37.182Z,51.56
2023-04-06T07:43:37.188Z,58.01
2023-04-06T07:44:37.192Z,47.37
2023-04-06T07:45:37.211Z,45.60
2023-04-06T07:46:37.234Z,46.73
2023-04-06T07:47:37.207Z,52.69
2023-04-06T07:48:37.135Z,55.43
2023-04-06T07:49:37.160Z,47.37
2023-04-06T07:50:37.123Z,50.76
2023-04-06T07:51:37.116Z,49.95
2023-04-06T07:52:38.433Z,48.02
2023-04-06T07:53:38.102Z,47.37
2023-04-06T07:54:37.125Z,55.91
2023-04-06T07:55:37.094Z,50.60
2023-04-06T07:56:37.078Z,52.05
2023-04-06T07:57:37.078Z,52.37
2023-04-06T07:58:37.065Z,53.50
2023-04-06T07:59:37.129Z,54.30
2023-04-06T08:00:37.052Z,47.86
2023-04-06T08:01:37.053Z,47.53
2023-04-06T08:02:37.094Z,50.11
2023-04-06T08:03:37.260Z,56.72
2023-04-06T08:04:37.118Z,54.62
2023-04-06T08:05:37.023Z,48.02
2023-04-06T08:06:37.006Z,49.47
2023-04-06T08:07:36.999Z,52.85
2023-04-06T08:08:36.995Z,48.02
2023-04-06T08:09:37.009Z,52.69
2023-04-06T08:10:36.985Z,51.08
2023-04-06T08:11:36.973Z,49.15
2023-04-06T08:12:36.968Z,45.28
2023-04-06T08:13:36.960Z,55.75
2023-04-06T08:14:36.977Z,51.56
2023-04-06T08:15:36.990Z,54.79
2023-04-06T08:16:36.933Z,48.18
2023-04-06T08:17:36.933Z,48.02
2023-04-06T08:18:36.924Z,51.88
2023-04-06T08:19:36.939Z,50.43
2023-04-06T08:20:36.904Z,54.14
2023-04-06T08:21:36.918Z,50.92
2023-04-06T08:22:37.890Z,59.94
2023-04-06T08:23:36.899Z,49.31
2023-04-06T08:24:36.902Z,57.36
2023-04-06T08:25:36.894Z,54.30
2023-04-06T08:26:36.880Z,53.66
2023-04-06T08:27:36.885Z,45.60
2023-04-06T08:28:36.934Z,45.76
2023-04-06T08:29:36.910Z,53.33
2023-04-06T08:30:36.858Z,56.07
2023-04-06T08:31:36.863Z,45.12
2023-04-06T08:32:36.886Z,54.30
2023-04-06T08:33:36.866Z,53.66
2023-04-06T08:34:36.865Z,51.88
2023-04-06T08:35:36.910Z,46.89
2023-04-06T08:36:36.799Z,46.89
2023-04-06T08:37:36.788Z,56.24
2023-04-06T08:38:36.778Z,51.72
2023-04-06T08:39:36.827Z,44.31
2023-04-06T08:40:36.764Z,47.86
2023-04-06T08:41:36.758Z,45.92
2023-04-06T08:42:36.751Z,48.66
2023-04-06T08:43:36.743Z,44.15
2023-04-06T08:44:36.757Z,51.40
2023-04-06T08:45:36.728Z,46.08
2023-04-06T08:46:36.756Z,52.85
2023-04-06T08:47:36.775Z,42.86
2023-04-06T08:48:36.707Z,51.40
2023-04-06T08:49:36.720Z,48.18
2023-04-06T08:50:36.695Z,49.31
2023-04-06T08:51:36.679Z,51.72
2023-04-06T08:52:36.680Z,54.30
2023-04-06T08:53:36.677Z,46.89
2023-04-06T08:54:36.702Z,49.79
2023-04-06T08:55:36.658Z,45.44
2023-04-06T08:56:36.656Z,48.50
2023-04-06T08:57:36.648Z,47.86
2023-04-06T08:58:38.572Z,49.95
2023-04-06T08:59:37.906Z,51.40
2023-04-06T09:00:36.625Z,52.53
2023-04-06T09:01:36.650Z,51.40
2023-04-06T09:02:36.652Z,47.05
2023-04-06T09:03:36.684Z,48.18
2023-04-06T09:04:36.695Z,46.89
2023-04-06T09:05:36.590Z,54.79
2023-04-06T09:06:36.583Z,52.05
2023-04-06T09:07:36.578Z,49.63
2023-04-06T09:08:36.562Z,47.53
2023-04-06T09:09:36.611Z,51.88
2023-04-06T09:10:36.565Z,52.21
2023-04-06T09:11:36.552Z,48.98
2023-04-06T09:12:36.544Z,50.11
2023-04-06T09:13:36.527Z,47.05
2023-04-06T09:14:36.560Z,49.15
2023-04-06T09:15:36.545Z,50.76
2023-04-06T09:16:36.567Z,49.95
2023-04-06T09:17:36.514Z,47.53
2023-04-06T09:18:36.491Z,47.70
2023-04-06T09:19:36.511Z,50.92
2023-04-06T09:20:36.481Z,50.60
2023-04-06T09:21:36.476Z,49.31
2023-04-06T09:22:36.467Z,45.60
2023-04-06T09:23:36.503Z,43.83
2023-04-06T09:24:36.473Z,48.34
2023-04-06T09:25:36.442Z,48.18
2023-04-06T09:26:36.449Z,45.60
2023-04-06T09:27:36.432Z,49.95
2023-04-06T09:28:36.420Z,45.28
2023-04-06T09:29:36.456Z,49.47
2023-04-06T09:30:36.411Z,51.24
2023-04-06T09:31:36.460Z,44.47
2023-04-06T09:32:36.449Z,49.31
2023-04-06T09:33:36.390Z,52.21
2023-04-06T09:34:36.423Z,49.47
2023-04-06T09:35:36.455Z,47.86
2023-04-06T09:36:36.358Z,47.86
2023-04-06T09:37:36.361Z,43.83
2023-04-06T09:38:36.351Z,40.77
2023-04-06T09:39:36.365Z,42.06
2023-04-06T09:40:36.333Z,46.57
2023-04-06T09:41:36.346Z,54.95
2023-04-06T09:42:36.331Z,47.21
2023-04-06T09:43:36.314Z,48.34
2023-04-06T09:44:36.330Z,50.11
2023-04-06T09:45:36.295Z,52.53
2023-04-06T09:46:50.654Z,52.05
2023-04-06T09:47:38.412Z,51.40
2023-04-06T09:48:36.315Z,52.85
2023-04-06T09:49:36.324Z,50.92
2023-04-06T09:50:36.265Z,47.37
2023-04-06T09:51:37.442Z,48.82
2023-04-06T09:52:36.242Z,53.66
2023-04-06T09:53:36.233Z,51.08
2023-04-06T09:54:36.250Z,49.47
2023-04-06T09:55:36.236Z,53.82
2023-04-06T09:56:36.213Z,50.76
2023-04-06T09:57:36.208Z,48.98
2023-04-06T09:58:36.194Z,46.08
2023-04-06T09:59:36.242Z,52.05
2023-04-06T10:00:36.202Z,48.50
2023-04-06T10:01:36.204Z,53.17
2023-04-06T10:02:36.321Z,47.53
2023-04-06T10:03:36.255Z,49.95
2023-04-06T10:04:36.175Z,51.56
2023-04-06T10:05:36.190Z,51.24
2023-04-06T10:06:36.138Z,52.21
2023-04-06T10:07:43.202Z,50.27
2023-04-06T10:08:37.143Z,50.27
2023-04-06T10:09:36.148Z,48.82
2023-04-06T10:10:36.108Z,52.21
2023-04-06T10:11:36.124Z,47.86
2023-04-06T10:12:36.083Z,52.05
2023-04-06T10:13:36.098Z,51.08
2023-04-06T10:14:36.102Z,46.57
2023-04-06T10:15:36.077Z,49.63
2023-04-06T10:16:36.080Z,52.37
2023-04-06T10:17:36.092Z,44.79
2023-04-06T10:18:36.037Z,47.86
2023-04-06T10:19:36.036Z,48.34
2023-04-06T10:20:36.043Z,43.02
2023-04-06T10:21:36.030Z,50.27
2023-04-06T10:22:36.005Z,50.27
2023-04-06T10:23:35.999Z,49.95
2023-04-06T10:24:35.989Z,51.08
2023-04-06T10:25:36.017Z,47.70
2023-04-06T10:26:35.975Z,47.86
2023-04-06T10:27:35.967Z,47.70
2023-04-06T10:28:35.952Z,48.34
2023-04-06T10:29:36.952Z,48.82
2023-04-06T10:30:35.970Z,49.31
2023-04-06T10:31:35.976Z,50.43
2023-04-06T10:32:35.980Z,47.70
2023-04-06T10:33:35.933Z,48.66
2023-04-06T10:34:35.915Z,47.53
2023-04-06T10:35:35.967Z,46.25
2023-04-06T10:36:35.967Z,51.88
2023-04-06T10:37:35.899Z,52.05
2023-04-06T10:38:37.645Z,48.02
2023-04-06T10:39:35.877Z,51.56
2023-04-06T10:40:36.253Z,48.66
2023-04-06T10:41:35.883Z,51.56
2023-04-06T10:42:35.860Z,50.60
2023-04-06T10:43:35.918Z,51.08
2023-04-06T10:44:35.848Z,50.92
2023-04-06T10:45:35.886Z,47.86
2023-04-06T10:49:10.451Z,47.70
2023-04-06T10:50:10.448Z,46.25
2023-04-06T10:51:10.462Z,45.92
2023-04-06T10:52:10.430Z,53.01
2023-04-06T10:53:10.416Z,52.21
2023-04-06T10:54:10.414Z,47.37
2023-04-06T10:55:10.401Z,44.63
2023-04-06T10:56:10.431Z,46.73
2023-04-06T10:57:10.395Z,47.86
2023-04-06T10:58:10.385Z,49.15
2023-04-06T10:59:10.396Z,46.89
2023-04-06T11:00:12.172Z,44.96
2023-04-06T11:01:10.420Z,49.95
2023-04-06T11:02:11.481Z,52.37
2023-04-06T11:03:11.504Z,49.47
2023-04-06T11:04:11.486Z,48.34
2023-04-06T11:05:11.454Z,46.41
2023-04-06T11:06:11.482Z,42.22
2023-04-06T11:07:11.462Z,42.54
2023-04-06T11:08:11.441Z,48.02
2023-04-06T11:09:11.459Z,48.50
2023-04-06T11:10:17.508Z,48.66
2023-04-06T11:11:13.440Z,49.63
2023-04-06T11:12:11.399Z,47.86
2023-04-06T11:13:11.396Z,45.92
2023-04-06T11:14:11.406Z,49.31
2023-04-06T11:15:11.383Z,53.01
2023-04-06T11:16:11.438Z,52.53
2023-04-06T11:17:11.417Z,55.11
2023-04-06T11:18:11.412Z,50.92
2023-04-06T11:19:11.362Z,51.40
2023-04-06T11:20:11.341Z,52.69
2023-04-06T11:21:11.352Z,56.40
2023-04-06T11:22:11.329Z,51.88
2023-04-06T11:23:11.314Z,50.27
2023-04-06T11:24:11.316Z,53.50
2023-04-06T11:25:11.307Z,48.18
2023-04-06T11:26:11.329Z,48.02
2023-04-06T11:27:11.298Z,48.18
2023-04-06T11:28:11.284Z,49.31
2023-04-06T11:29:11.266Z,47.53
2023-04-06T11:30:11.262Z,49.15
2023-04-06T11:31:11.333Z,53.17
2023-04-06T11:32:11.255Z,48.50
2023-04-06T11:33:11.237Z,48.34
2023-04-06T11:34:11.228Z,47.21
2023-04-06T11:35:11.225Z,48.18
2023-04-06T11:36:11.266Z,49.47
2023-04-06T11:37:11.215Z,47.37
2023-04-06T11:38:11.214Z,47.05
2023-04-06T11:39:11.193Z,53.01
2023-04-06T11:40:11.192Z,49.95
2023-04-06T11:41:11.201Z,52.05
2023-04-06T11:42:11.176Z,50.60
2023-04-06T11:43:11.166Z,49.31
2023-04-06T11:44:11.153Z,47.05
2023-04-06T11:45:11.143Z,47.53
2023-04-06T11:46:11.282Z,46.73
2023-04-06T11:47:11.137Z,52.21
2023-04-06T11:49:11.135Z,48.82
2023-04-06T11:50:11.108Z,52.37
2023-04-06T11:51:11.122Z,50.60
2023-04-06T11:52:11.096Z,52.05
2023-04-06T11:53:11.093Z,51.72
2023-04-06T11:54:11.079Z,49.15
2023-04-06T11:55:11.083Z,50.76
2023-04-06T11:56:11.097Z,52.21
2023-04-06T11:57:11.052Z,49.95
2023-04-06T11:58:11.034Z,48.82
2023-04-06T11:59:11.050Z,47.70
2023-04-06T12:00:11.014Z,49.63
2023-04-06T12:01:11.046Z,49.47
2023-04-06T12:02:11.008Z,47.21
2023-04-06T12:03:11.041Z,49.15
2023-04-06T12:04:11.010Z,50.43
2023-04-06T12:05:10.980Z,52.53
2023-04-06T12:06:10.996Z,49.31
2023-04-06T12:07:10.971Z,48.82
2023-04-06T12:08:10.954Z,49.47
2023-04-06T12:09:10.939Z,50.76
2023-04-06T12:10:12.048Z,48.82
2023-04-06T12:11:10.959Z,49.31
2023-04-06T12:12:10.935Z,48.98
2023-04-06T12:13:10.927Z,49.63
2023-04-06T12:14:10.911Z,43.99
2023-04-06T12:15:10.890Z,47.86
2023-04-06T12:16:10.899Z,53.01
2023-04-06T12:17:10.915Z,52.85
2023-04-06T12:18:10.875Z,50.92
2023-04-06T12:19:10.877Z,48.34
2023-04-06T12:20:24.693Z,47.21
2023-04-06T12:21:12.885Z,45.76
2023-04-06T12:22:10.840Z,48.98
2023-04-06T12:23:10.827Z,47.86
2023-04-06T12:24:10.841Z,50.27
2023-04-06T12:25:10.816Z,47.37
2023-04-06T12:26:13.002Z,46.25
2023-04-06T12:27:11.044Z,48.66
2023-04-06T12:28:10.793Z,53.33
2023-04-06T12:29:10.789Z,52.05
2023-04-06T12:30:10.798Z,45.44
2023-04-06T12:31:10.800Z,48.34
2023-04-06T12:32:10.787Z,48.34
2023-04-06T12:33:10.799Z,52.37
2023-04-06T12:34:10.751Z,50.11
2023-04-06T12:35:10.746Z,47.53
2023-04-06T12:36:10.737Z,47.21
2023-04-06T12:37:10.753Z,52.21
2023-04-06T12:38:10.732Z,46.57
2023-04-06T12:39:10.708Z,49.47
2023-04-06T12:40:10.733Z,50.11
2023-04-06T12:41:10.708Z,43.67
2023-04-06T12:42:10.711Z,47.37
2023-04-06T12:43:10.689Z,48.50
2023-04-06T12:44:10.677Z,48.50
2023-04-06T12:45:10.679Z,50.27
2023-04-06T12:46:10.656Z,50.76
2023-04-06T12:47:10.801Z,51.40
2023-04-06T12:48:10.690Z,48.50
2023-04-06T12:49:10.638Z,51.56
2023-04-06T12:50:10.666Z,52.05
2023-04-06T12:51:10.626Z,50.76
2023-04-06T12:52:10.970Z,47.70
2023-04-06T12:53:10.605Z,47.86
2023-04-06T12:54:10.594Z,47.21
2023-04-06T12:55:10.592Z,49.63
2023-04-06T12:56:10.590Z,48.34
2023-04-06T12:57:10.601Z,50.43
2023-04-06T12:58:10.577Z,49.31